Time;durP1;ratioP1;P1;durP2;ratioP2;P2;SDS_P1;SDS_P2;PMS_P1;PMS_P2;Temp;Humidity;BMP_temperature;BMP_pressure;BME280_temperature;BME280_humidity;BME280_pressure;Samples;Min_cycle;Max_cycle;Signal;HPM_P1;HPM_P2
2022/03/26 00:00:40;;;;;;;12.45;9.23;;;15.20;58.30;;;;;;5011273;28;20412;-67
2022/03/26 00:03:09;;;;;;;10.95;8.63;;;15.50;58.40;;;;;;5011471;28;20056;-67
2022/03/26 00:05:35;;;;;;;11.10;8.00;;;15.70;58.60;;;;;;5012647;28;20058;-67
2022/03/26 00:08:02;;;;;;;14.48;9.13;;;15.40;52.40;;;;;;5010801;28;20412;-67
2022/03/26 00:10:29;;;;;;;10.48;8.13;;;15.40;58.60;;;;;;5011157;28;20054;-67
2022/03/26 00:12:57;;;;;;;13.10;8.60;;;;;;;;;;5016821;28;20671;-67
2022/03/26 00:15:24;;;;;;;12.30;9.23;;;;;;;;;;5031031;28;20053;-67
2022/03/26 00:17:52;;;;;;;11.10;8.35;;;15.50;58.80;;;;;;5031077;28;20124;-67
2022/03/26 00:20:20;;;;;;;11.20;8.15;;;15.40;58.80;;;;;;5030518;28;20053;-67
2022/03/26 00:22:47;;;;;;;9.98;7.82;;;15.40;58.80;;;;;;5032065;28;20049;-67
2022/03/26 00:25:16;;;;;;;11.98;8.27;;;;;;;;;;5032301;28;20119;-68
2022/03/26 00:27:43;;;;;;;12.02;8.70;;;15.50;58.40;;;;;;5030210;28;20037;-67
2022/03/26 00:30:11;;;;;;;12.27;8.32;;;15.30;57.90;;;;;;5030514;28;20720;-67
2022/03/26 00:32:37;;;;;;;12.07;9.00;;;15.40;58.80;;;;;;5031023;28;20054;-67
2022/03/26 00:35:06;;;;;;;10.60;8.18;;;15.30;58.80;;;;;;5030578;28;20060;-67
2022/03/26 00:37:34;;;;;;;13.77;8.48;;;15.40;58.40;;;;;;5030858;28;20107;-67
2022/03/26 00:40:01;;;;;;;12.98;9.25;;;15.30;58.20;;;;;;5030548;28;20059;-67
2022/03/26 00:42:28;;;;;;;12.05;8.57;;;;;;;;;;5031975;28;20075;-66
2022/03/26 00:44:55;;;;;;;10.95;8.52;;;;;;;;;;5029636;28;20426;-68
2022/03/26 00:47:22;;;;;;;12.05;8.88;;;15.40;58.60;;;;;;5030581;28;20059;-67
2022/03/26 00:49:49;;;;;;;10.63;8.32;;;15.50;54.40;;;;;;5030241;28;20392;-67
2022/03/26 00:52:16;;;;;;;12.50;8.85;;;15.00;58.30;;;;;;5031891;28;20140;-67
2022/03/26 00:54:44;;;;;;;12.20;8.52;;;14.70;58.20;;;;;;5031580;28;20060;-67
2022/03/26 00:57:10;;;;;;;11.15;8.32;;;15.30;58.60;;;;;;5033352;28;20499;-67
2022/03/26 00:59:37;;;;;;;12.25;8.65;;;;;;;;;;5033908;28;20392;-67
2022/03/26 01:02:05;;;;;;;11.48;8.95;;;15.20;58.50;;;;;;5034835;28;20499;-67
2022/03/26 01:04:32;;;;;;;11.45;8.48;;;15.30;54.30;;;;;;5034454;28;20517;-68
2022/03/26 01:06:59;;;;;;;13.52;8.95;;;15.30;58.60;;;;;;5034392;28;20385;-67
2022/03/26 01:09:26;;;;;;;11.35;8.15;;;;;;;;;;5033601;28;20053;-67
2022/03/26 01:11:55;;;;;;;14.95;10.27;;;15.30;50.60;;;;;;5035190;28;20442;-67
2022/03/26 01:14:22;;;;;;;10.98;8.50;;;;;;;;;;5034422;28;20534;-68
2022/03/26 01:16:49;;;;;;;11.25;8.15;;;15.30;59.00;;;;;;5032687;28;20535;-67
2022/03/26 01:19:16;;;;;;;11.52;8.88;;;;;;;;;;5035085;28;20045;-68
2022/03/26 01:21:43;;;;;;;12.27;8.60;;;15.00;58.40;;;;;;5034775;28;20047;-67
2022/03/26 01:24:09;;;;;;;12.35;8.38;;;15.10;58.80;;;;;;5035126;28;20057;-67
2022/03/26 01:26:36;;;;;;;11.50;8.30;;;15.30;56.10;;;;;;5034017;28;20496;-67
2022/03/26 01:29:05;;;;;;;13.88;9.68;;;15.20;58.90;;;;;;5033854;28;20069;-67
2022/03/26 01:31:31;;;;;;;13.27;9.32;;;15.30;58.90;;;;;;5032103;28;20053;-67
2022/03/26 01:34:00;;;;;;;13.23;8.98;;;;;;;;;;5034877;28;20060;-67
2022/03/26 01:36:28;;;;;;;11.95;9.20;;;15.20;58.80;;;;;;5035007;28;20057;-67
2022/03/26 01:38:54;;;;;;;12.90;9.50;;;15.40;55.60;;;;;;5033888;28;20049;-67
2022/03/26 01:41:21;;;;;;;12.65;9.10;;;14.50;58.10;;;;;;5033379;28;20484;-67
2022/03/26 01:43:48;;;;;;;12.88;9.20;;;;;;;;;;5033584;28;20136;-67
2022/03/26 01:46:16;;;;;;;12.23;9.35;;;15.20;58.50;;;;;;5033454;28;20464;-67
2022/03/26 01:48:43;;;;;;;12.20;8.90;;;15.00;58.40;;;;;;5033196;28;20096;-67
2022/03/26 01:51:15;;;;;;;12.75;9.23;;;15.20;58.90;;;;;;5034230;28;20510;-67
2022/03/26 01:53:47;;;;;;;14.02;9.93;;;15.30;58.60;;;;;;5033223;28;20049;-67
2022/03/26 01:56:14;;;;;;;15.13;9.80;;;15.30;58.90;;;;;;5033536;28;20062;-67
2022/03/26 01:58:41;;;;;;;13.57;9.60;;;15.00;53.30;;;;;;5033537;28;20107;-67
2022/03/26 02:01:08;;;;;;;12.68;9.45;;;;;;;;;;5033112;28;20140;-67
2022/03/26 02:03:36;;;;;;;13.48;9.77;;;15.30;52.40;;;;;;5034772;28;20053;-67
2022/03/26 02:06:03;;;;;;;14.85;10.55;;;;;;;;;;5031765;28;20057;-67
2022/03/26 02:08:31;;;;;;;15.00;10.52;;;15.30;58.40;;;;;;5033407;28;20480;-67
2022/03/26 02:10:57;;;;;;;14.80;10.65;;;15.40;58.50;;;;;;5032923;28;20057;-67
2022/03/26 02:13:24;;;;;;;13.95;10.27;;;15.30;58.60;;;;;;5034189;28;20415;-67
2022/03/26 02:15:51;;;;;;;13.85;9.57;;;;;;;;;;5034202;28;20059;-67
2022/03/26 02:18:18;;;;;;;14.25;10.32;;;15.30;58.70;;;;;;5033064;28;20049;-67
2022/03/26 02:20:47;;;;;;;14.50;10.60;;;15.30;58.60;;;;;;5031103;28;20079;-67
2022/03/26 02:23:14;;;;;;;15.68;10.63;;;15.40;58.60;;;;;;5033055;28;20057;-67
2022/03/26 02:25:41;;;;;;;13.48;10.35;;;15.20;58.60;;;;;;5032607;28;20410;-67
2022/03/26 02:28:08;;;;;;;17.55;10.95;;;15.40;56.60;;;;;;5032703;28;20052;-68
2022/03/26 02:30:34;;;;;;;14.07;9.40;;;15.50;58.70;;;;;;5033552;28;20062;-67
2022/03/26 02:33:02;;;;;;;15.07;10.63;;;;;;;;;;5032708;28;20059;-67
2022/03/26 02:35:28;;;;;;;14.63;10.13;;;15.40;58.50;;;;;;5032757;28;20510;-67
2022/03/26 02:37:56;;;;;;;13.13;9.52;;;14.80;52.10;;;;;;5032210;28;20060;-68
2022/03/26 02:40:23;;;;;;;15.75;10.52;;;15.10;58.40;;;;;;5033510;28;20049;-66
2022/03/26 02:42:50;;;;;;;13.68;9.65;;;;;;;;;;5032820;28;20053;-67
2022/03/26 02:45:17;;;;;;;13.65;9.65;;;15.40;58.50;;;;;;5032310;28;20515;-67
2022/03/26 02:47:44;;;;;;;13.82;9.93;;;;;;;;;;5032553;28;20491;-67
2022/03/26 02:50:12;;;;;;;15.77;10.73;;;15.40;58.50;;;;;;5032301;28;20065;-67
2022/03/26 02:52:39;;;;;;;13.85;9.93;;;15.40;58.50;;;;;;5030536;28;20080;-67
2022/03/26 02:55:08;;;;;;;13.65;10.10;;;15.40;58.20;;;;;;5032426;28;20053;-67
2022/03/26 02:57:35;;;;;;;13.75;9.85;;;15.40;58.50;;;;;;5033460;28;20050;-67
2022/03/26 03:00:02;;;;;;;14.02;10.45;;;15.40;58.10;;;;;;5033079;28;20484;-67
2022/03/26 03:02:29;;;;;;;16.23;10.35;;;15.40;57.80;;;;;;5032242;28;20140;-67
2022/03/26 03:04:56;;;;;;;14.48;9.77;;;15.30;58.10;;;;;;5033502;28;20054;-67
2022/03/26 03:07:23;;;;;;;13.82;10.50;;;;;;;;;;5031890;28;20053;-67
2022/03/26 03:09:50;;;;;;;14.75;10.35;;;15.40;58.10;;;;;;5029973;28;20049;-67
2022/03/26 03:12:20;;;;;;;14.48;10.02;;;15.30;50.90;;;;;;5033133;28;20045;-67
2022/03/26 03:14:47;;;;;;;14.43;10.05;;;16.10;56.30;;;;;;5032074;28;20419;-67
2022/03/26 03:17:14;;;;;;;15.63;10.13;;;15.40;58.10;;;;;;5032200;28;20053;-67
2022/03/26 03:19:41;;;;;;;13.77;10.20;;;15.30;55.80;;;;;;5030896;28;20559;-67
2022/03/26 03:22:08;;;;;;;14.65;10.65;;;15.60;58.20;;;;;;5032656;28;20060;-67
2022/03/26 03:24:34;;;;;;;15.43;10.93;;;15.40;58.30;;;;;;5029830;28;20060;-67
2022/03/26 03:27:01;;;;;;;14.68;9.75;;;15.50;51.80;;;;;;5031853;28;20514;-67
2022/03/26 03:29:29;;;;;;;14.80;10.18;;;15.40;58.00;;;;;;5032332;28;20055;-67
2022/03/26 03:31:56;;;;;;;15.38;10.32;;;15.40;58.30;;;;;;5032568;28;20049;-67
2022/03/26 03:34:22;;;;;;;13.70;10.23;;;15.40;58.10;;;;;;5031732;28;20055;-67
2022/03/26 03:36:49;;;;;;;17.02;10.50;;;;;;;;;;5032573;28;20049;-67
2022/03/26 03:39:16;;;;;;;14.38;10.70;;;15.60;58.20;;;;;;5031418;28;20060;-67
2022/03/26 03:41:43;;;;;;;14.73;10.75;;;15.40;58.30;;;;;;5029660;28;20668;-67
2022/03/26 03:44:10;;;;;;;16.58;10.25;;;15.10;52.30;;;;;;5031254;28;20049;-67
2022/03/26 03:46:38;;;;;;;14.90;10.32;;;15.30;58.30;;;;;;5031227;28;20049;-67
2022/03/26 03:49:04;;;;;;;15.57;10.63;;;15.40;58.30;;;;;;5031239;28;20055;-67
2022/03/26 03:51:31;;;;;;;14.52;9.85;;;;;;;;;;5031885;28;20060;-67
2022/03/26 03:53:58;;;;;;;14.73;10.65;;;15.40;58.30;;;;;;5031300;28;20065;-67
2022/03/26 03:56:25;;;;;;;14.15;10.13;;;15.50;58.10;;;;;;5031070;28;20416;-67
2022/03/26 03:58:52;;;;;;;13.38;9.75;;;;;;;;;;5029433;28;20052;-67
2022/03/26 04:01:19;;;;;;;12.45;9.82;;;15.50;58.40;;;;;;5030925;28;20054;-67
2022/03/26 04:03:47;;;;;;;14.55;9.80;;;15.30;49.90;;;;;;5030857;28;20049;-67
2022/03/26 04:06:13;;;;;;;16.85;10.63;;;15.30;57.90;;;;;;5032449;28;20056;-67
2022/03/26 04:08:40;;;;;;;13.43;9.80;;;15.40;53.60;;;;;;5030928;28;20509;-68
2022/03/26 04:11:07;;;;;;;13.60;9.90;;;15.40;58.20;;;;;;5031857;28;20056;-67
2022/03/26 04:13:33;;;;;;;16.35;10.15;;;14.90;57.60;;;;;;5030160;28;20049;-67
2022/03/26 04:16:00;;;;;;;15.18;9.82;;;;;;;;;;5031110;28;20054;-67
2022/03/26 04:18:27;;;;;;;14.18;10.70;;;14.90;58.00;;;;;;5032068;28;20049;-67
2022/03/26 04:20:56;;;;;;;15.55;10.70;;;15.30;49.90;;;;;;5031735;28;20049;-67
2022/03/26 04:23:23;;;;;;;14.52;10.25;;;15.10;58.00;;;;;;5030780;28;20049;-67
2022/03/26 04:25:49;;;;;;;15.82;10.82;;;15.40;58.00;;;;;;5030900;28;20057;-67
2022/03/26 04:28:16;;;;;;;15.35;10.77;;;15.40;58.00;;;;;;5030793;28;20646;-67
2022/03/26 04:30:43;;;;;;;15.30;10.40;;;15.40;55.70;;;;;;5028690;28;20488;-68
2022/03/26 04:33:10;;;;;;;15.45;10.98;;;15.30;58.00;;;;;;5031702;28;20100;-67
2022/03/26 04:35:37;;;;;;;16.63;11.55;;;;;;;;;;5031441;28;20529;-67
2022/03/26 04:38:06;;;;;;;16.45;11.32;;;15.70;58.20;;;;;;5030604;28;20054;-67
2022/03/26 04:40:33;;;;;;;16.63;11.43;;;15.30;58.00;;;;;;5030577;28;20053;-67
2022/03/26 04:42:59;;;;;;;16.90;11.15;;;15.30;58.20;;;;;;5032112;28;20061;-67
2022/03/26 04:45:26;;;;;;;15.82;10.70;;;14.70;57.70;;;;;;5030097;28;20128;-67
2022/03/26 04:47:53;;;;;;;15.93;11.18;;;;;;;;;;5031801;28;20053;-68
2022/03/26 04:50:20;;;;;;;15.32;10.98;;;15.40;58.00;;;;;;5031420;28;20045;-67
2022/03/26 04:52:48;;;;;;;15.57;10.52;;;14.80;57.70;;;;;;5031654;28;20061;-67
2022/03/26 04:55:18;;;;;;;17.25;11.52;;;15.30;58.30;;;;;;5030577;28;20092;-67
2022/03/26 04:57:47;;;;;;;17.38;11.60;;;15.30;58.00;;;;;;5030593;28;20665;-67
2022/03/26 05:00:15;;;;;;;15.50;10.85;;;14.50;57.60;;;;;;5031614;28;20447;-67
2022/03/26 05:02:42;;;;;;;15.68;11.57;;;;;;;;;;5029950;28;20050;-67
2022/03/26 05:05:10;;;;;;;19.27;11.63;;;15.30;49.90;;;;;;5031852;28;20096;-67
2022/03/26 05:07:50;;;;;;;16.92;12.13;;;14.80;51.70;;;;;;5030429;28;20061;-67
2022/03/26 05:10:19;;;;;;;17.42;11.82;;;15.40;58.40;;;;;;5030486;28;20398;-67
2022/03/26 05:12:46;;;;;;;17.90;12.38;;;;;;;;;;5031843;28;20133;-68
2022/03/26 05:15:13;;;;;;;18.92;12.00;;;14.50;57.50;;;;;;5015778;28;20085;-67
2022/03/26 05:17:40;;;;;;;16.65;11.55;;;;;;;;;;5012112;28;20469;-67
2022/03/26 05:20:08;;;;;;;20.70;13.15;;;14.90;57.90;;;;;;5011406;28;20052;-67
2022/03/26 05:22:35;;;;;;;18.90;12.55;;;15.30;58.20;;;;;;5010602;28;20061;-67
2022/03/26 05:25:02;;;;;;;20.15;12.82;;;;;;;;;;5011837;28;20056;-68
2022/03/26 05:27:30;;;;;;;19.80;12.65;;;15.20;57.90;;;;;;5015434;28;20063;-67
2022/03/26 05:29:59;;;;;;;18.55;12.52;;;15.30;58.30;;;;;;5030974;28;20053;-67
2022/03/26 05:32:26;;;;;;;19.85;13.38;;;;;;;;;;5031352;28;20061;-68
2022/03/26 05:34:53;;;;;;;20.20;13.35;;;15.30;58.00;;;;;;5030298;28;20053;-67
2022/03/26 05:37:20;;;;;;;18.50;12.75;;;14.80;57.70;;;;;;5029951;28;20778;-67
2022/03/26 05:39:47;;;;;;;19.67;13.38;;;15.30;54.70;;;;;;5030000;28;20046;-67
2022/03/26 05:42:14;;;;;;;21.75;13.32;;;15.20;49.80;;;;;;5029876;28;20053;-67
2022/03/26 05:44:42;;;;;;;20.13;13.15;;;15.20;57.80;;;;;;5018209;28;20493;-67
2022/03/26 05:47:09;;;;;;;21.02;13.20;;;15.10;57.70;;;;;;5014002;28;20063;-67
2022/03/26 05:49:36;;;;;;;19.60;12.80;;;15.20;57.90;;;;;;5014590;28;20046;-67
2022/03/26 05:52:03;;;;;;;20.52;12.82;;;;;;;;;;5014892;28;20052;-67
2022/03/26 05:54:30;;;;;;;18.35;12.68;;;15.20;57.70;;;;;;5014977;28;20060;-67
2022/03/26 05:56:57;;;;;;;20.77;14.23;;;;;;;;;;5013821;28;20056;-68
2022/03/26 05:59:24;;;;;;;20.48;13.45;;;15.20;57.80;;;;;;5014567;28;20050;-67
2022/03/26 06:01:54;;;;;;;20.80;12.95;;;15.80;51.40;;;;;;5013541;28;20077;-68
2022/03/26 06:04:22;;;;;;;19.58;13.10;;;14.90;53.30;;;;;;5013469;28;20523;-67
2022/03/26 06:06:48;;;;;;;19.00;12.88;;;15.20;58.00;;;;;;5013925;28;20272;-67
2022/03/26 06:09:15;;;;;;;20.58;13.82;;;15.20;54.40;;;;;;5013166;28;20054;-68
2022/03/26 06:11:42;;;;;;;21.23;14.10;;;15.10;58.30;;;;;;5014209;28;20046;-67
2022/03/26 06:14:08;;;;;;;21.27;13.50;;;15.20;58.30;;;;;;5013529;28;20064;-67
2022/03/26 06:16:35;;;;;;;19.10;13.27;;;;;;;;;;5029240;28;20079;-68
2022/03/26 06:19:03;;;;;;;20.98;13.88;;;15.20;58.20;;;;;;5034134;28;20520;-67
2022/03/26 06:21:30;;;;;;;20.42;14.00;;;15.20;57.90;;;;;;5033025;28;20059;-67
2022/03/26 06:23:58;;;;;;;21.77;14.48;;;;;;;;;;5034075;28;20049;-68
2022/03/26 06:26:25;;;;;;;22.00;15.18;;;15.30;58.00;;;;;;5032920;28;20613;-67
2022/03/26 06:28:52;;;;;;;23.65;14.80;;;15.30;58.30;;;;;;5034045;28;20396;-67
2022/03/26 06:31:19;;;;;;;22.35;14.60;;;15.20;57.90;;;;;;5027512;28;20045;-67
2022/03/26 06:33:46;;;;;;;21.55;14.13;;;;;;;;;;5013086;28;20481;-67
2022/03/26 06:36:14;;;;;;;25.73;14.85;;;15.70;58.10;;;;;;5014144;28;20054;-67
2022/03/26 06:38:41;;;;;;;24.65;14.70;;;14.90;57.80;;;;;;5012931;28;20108;-67
2022/03/26 06:41:09;;;;;;;21.48;15.10;;;15.20;49.70;;;;;;5019566;28;20057;-67
2022/03/26 06:43:36;;;;;;;22.45;14.65;;;14.80;52.40;;;;;;5032635;28;20136;-67
2022/03/26 06:46:03;;;;;;;24.50;15.10;;;15.30;57.90;;;;;;5032852;28;20056;-67
2022/03/26 06:48:30;;;;;;;23.42;15.38;;;15.00;58.10;;;;;;5032844;28;20053;-67
2022/03/26 06:50:57;;;;;;;23.02;15.02;;;15.30;57.80;;;;;;5031735;28;20502;-67
2022/03/26 06:53:26;;;;;;;21.80;14.82;;;15.30;57.90;;;;;;5032269;28;20055;-67
2022/03/26 06:55:53;;;;;;;23.58;15.18;;;15.40;58.10;;;;;;5019742;28;20393;-67
2022/03/26 06:58:19;;;;;;;21.45;15.10;;;15.30;58.00;;;;;;5012183;28;20058;-67
2022/03/26 07:00:46;;;;;;;21.17;14.35;;;;;;;;;;5012304;28;20049;-68
2022/03/26 07:03:13;;;;;;;22.13;14.82;;;15.40;57.90;;;;;;5013671;28;20046;-67
2022/03/26 07:05:40;;;;;;;20.60;14.32;;;15.40;57.70;;;;;;5013987;28;20056;-67
2022/03/26 07:08:09;;;;;;;23.65;14.73;;;15.40;53.80;;;;;;5013298;28;20054;-68
2022/03/26 07:10:37;;;;;;;21.92;13.93;;;15.40;57.90;;;;;;5017024;28;20416;-67
2022/03/26 07:13:04;;;;;;;23.25;16.10;;;15.40;57.80;;;;;;5032032;28;20488;-67
2022/03/26 07:15:31;;;;;;;21.60;14.68;;;;;;;;;;5033107;28;20056;-68
2022/03/26 07:17:58;;;;;;;22.73;14.60;;;15.50;57.80;;;;;;5031711;28;20061;-67
2022/03/26 07:20:25;;;;;;;21.10;13.75;;;;;;;;;;5031677;28;20057;-68
2022/03/26 07:22:52;;;;;;;19.75;14.48;;;15.30;57.40;;;;;;5032714;28;20411;-67
2022/03/26 07:25:18;;;;;;;22.30;14.45;;;15.50;57.60;;;;;;5032970;28;20049;-67
2022/03/26 07:27:46;;;;;;;23.42;13.98;;;15.60;49.20;;;;;;5031224;28;20045;-68
2022/03/26 07:30:13;;;;;;;20.65;13.93;;;;;;;;;;5032378;28;20053;-67
2022/03/26 07:32:40;;;;;;;21.13;14.25;;;15.70;57.30;;;;;;5031260;28;20057;-67
2022/03/26 07:35:07;;;;;;;22.02;13.52;;;;;;;;;;5031875;28;20053;-68
2022/03/26 07:37:34;;;;;;;19.55;13.20;;;15.70;57.20;;;;;;5031708;28;20055;-67
2022/03/26 07:40:01;;;;;;;19.50;13.30;;;;;;;;;;5032054;28;20049;-68
2022/03/26 07:42:28;;;;;;;20.33;13.75;;;15.70;56.20;;;;;;5021839;28;20057;-67
2022/03/26 07:44:57;;;;;;;22.17;13.82;;;15.00;56.70;;;;;;5022453;28;20052;-67
2022/03/26 07:47:24;;;;;;;22.27;13.93;;;;;;;;;;5022164;28;20062;-67
2022/03/26 07:49:50;;;;;;;19.25;12.80;;;15.10;56.70;;;;;;5021481;28;20046;-67
2022/03/26 07:52:17;;;;;;;20.30;13.98;;;16.50;57.60;;;;;;5028423;28;20063;-67
2022/03/26 07:54:44;;;;;;;19.45;13.13;;;15.20;57.00;;;;;;5031027;28;20084;-67
2022/03/26 07:57:11;;;;;;;18.27;12.95;;;15.70;57.40;;;;;;5032387;28;20050;-67
2022/03/26 07:59:38;;;;;;;19.17;12.77;;;;;;;;;;5031498;28;20056;-68
2022/03/26 08:02:06;;;;;;;17.08;11.95;;;15.00;56.60;;;;;;5031192;28;20057;-67
2022/03/26 08:04:35;;;;;;;17.35;12.27;;;16.00;57.40;;;;;;5032234;28;20046;-67
2022/03/26 08:07:01;;;;;;;18.73;12.82;;;15.90;57.20;;;;;;5030456;28;20454;-67
2022/03/26 08:09:28;;;;;;;18.45;12.13;;;;;;;;;;5030840;28;20057;-67
2022/03/26 08:11:55;;;;;;;35.08;21.20;;;16.00;57.30;;;;;;5031952;28;20056;-68
2022/03/26 08:14:22;;;;;;;40.65;23.52;;;;;;;;;;5029179;28;20060;-68
2022/03/26 08:16:49;;;;;;;26.10;17.08;;;16.80;57.50;;;;;;5032234;28;20047;-68
2022/03/26 08:19:18;;;;;;;30.38;19.55;;;16.10;57.20;;;;;;5032307;28;20084;-68
2022/03/26 08:21:45;;;;;;;27.50;18.23;;;;;;;;;;5031649;28;20053;-68
2022/03/26 08:24:12;;;;;;;26.90;16.70;;;16.00;57.40;;;;;;5032080;28;20156;-69
2022/03/26 08:26:39;;;;;;;29.48;16.25;;;16.20;57.40;;;;;;5030405;28;20049;-69
2022/03/26 08:29:06;;;;;;;26.23;17.15;;;16.30;56.30;;;;;;5030931;28;20053;-69
2022/03/26 08:31:33;;;;;;;22.95;15.63;;;;;;;;;;5014579;28;20046;-68
2022/03/26 08:34:00;;;;;;;23.20;15.50;;;16.20;57.10;;;;;;5011150;28;20496;-69
2022/03/26 08:36:28;;;;;;;23.10;14.48;;;16.20;57.40;;;;;;5011181;28;20053;-69
2022/03/26 08:38:54;;;;;;;21.60;14.30;;;16.20;57.30;;;;;;5014483;28;20131;-69
2022/03/26 08:41:22;;;;;;;21.13;13.60;;;16.30;54.20;;;;;;5022433;28;20052;-69
2022/03/26 08:43:49;;;;;;;20.95;13.52;;;16.10;57.10;;;;;;5010762;28;20053;-69
2022/03/26 08:46:16;;;;;;;18.75;12.95;;;16.40;56.80;;;;;;5012174;28;20057;-69
2022/03/26 08:48:43;;;;;;;19.23;12.00;;;16.30;57.00;;;;;;5012213;28;20054;-69
2022/03/26 08:51:09;;;;;;;20.05;12.43;;;15.70;52.10;;;;;;5010307;28;20496;-69
2022/03/26 08:53:37;;;;;;;18.63;12.52;;;16.60;57.10;;;;;;5012003;28;20049;-69
2022/03/26 08:56:06;;;;;;;17.50;12.00;;;16.60;56.70;;;;;;5010970;28;20085;-69
2022/03/26 08:58:33;;;;;;;20.02;12.15;;;16.20;56.50;;;;;;5030144;28;20057;-69
2022/03/26 09:01:01;;;;;;;17.55;11.70;;;;;;;;;;5031216;28;20045;-68
2022/03/26 09:03:28;;;;;;;16.13;10.85;;;16.70;56.00;;;;;;5030626;28;20108;-69
2022/03/26 09:05:54;;;;;;;18.55;11.48;;;17.50;57.40;;;;;;5031352;28;20415;-69
2022/03/26 09:08:21;;;;;;;17.30;10.95;;;16.70;56.90;;;;;;5031735;28;20686;-69
2022/03/26 09:10:49;;;;;;;16.55;10.88;;;16.30;51.30;;;;;;5029924;28;20049;-69
2022/03/26 09:13:16;;;;;;;14.10;9.82;;;17.40;50.50;;;;;;5029786;28;20055;-69
2022/03/26 09:15:43;;;;;;;14.57;9.93;;;;;;;;;;5030832;28;20496;-69
2022/03/26 09:18:10;;;;;;;13.40;9.68;;;;;;;;;;5020523;28;20050;-68
2022/03/26 09:20:38;;;;;;;12.70;8.75;;;15.80;55.90;;;;;;5034773;28;20503;-69
2022/03/26 09:23:05;;;;;;;12.23;8.85;;;16.30;56.40;;;;;;5034216;28;20049;-67
2022/03/26 09:25:32;;;;;;;12.68;8.73;;;;;;;;;;5035236;28;20045;-68
2022/03/26 09:28:00;;;;;;;13.45;8.95;;;16.90;56.40;;;;;;5035155;28;20049;-68
2022/03/26 09:30:27;;;;;;;12.25;8.57;;;16.50;56.20;;;;;;5019098;28;20049;-67
2022/03/26 09:32:54;;;;;;;10.88;8.32;;;17.60;57.10;;;;;;5013852;28;20420;-68
2022/03/26 09:35:21;;;;;;;10.68;8.10;;;;;;;;;;5013753;28;20057;-68
2022/03/26 09:37:47;;;;;;;11.93;8.23;;;17.10;56.80;;;;;;5015162;28;20172;-67
2022/03/26 09:40:14;;;;;;;11.30;7.80;;;16.80;56.60;;;;;;5014866;28;20053;-67
2022/03/26 09:42:41;;;;;;;12.60;7.80;;;17.70;52.10;;;;;;5015123;28;20056;-68
2022/03/26 09:45:10;;;;;;;10.00;7.07;;;16.80;56.20;;;;;;5018706;28;20042;-67
2022/03/26 09:47:37;;;;;;;11.13;7.03;;;;;;;;;;5033602;28;20442;-69
2022/03/26 09:50:04;;;;;;;10.00;7.22;;;17.20;56.40;;;;;;5032996;28;20103;-67
2022/03/26 09:52:31;;;;;;;8.25;6.28;;;17.50;52.50;;;;;;5031243;28;20545;-67
2022/03/26 09:54:58;;;;;;;9.50;6.82;;;17.10;56.50;;;;;;5030300;28;20056;-67
2022/03/26 09:57:25;;;;;;;9.32;6.18;;;16.90;53.60;;;;;;5034370;28;20057;-67
2022/03/26 09:59:51;;;;;;;8.38;5.97;;;16.10;56.00;;;;;;5033094;28;20069;-67
2022/03/26 10:02:20;;;;;;;8.95;6.70;;;17.00;56.90;;;;;;5030913;28;20505;-67
2022/03/26 10:04:47;;;;;;;11.00;7.05;;;;;;;;;;5034873;28;20060;-67
2022/03/26 10:07:14;;;;;;;10.73;6.93;;;17.20;57.10;;;;;;5033228;28;20118;-68
2022/03/26 10:09:41;;;;;;;10.63;6.30;;;17.30;57.20;;;;;;5032552;28;20480;-68
2022/03/26 10:12:10;;;;;;;11.93;6.18;;;17.50;57.60;;;;;;5032891;28;20403;-68
2022/03/26 10:14:38;;;;;;;11.93;6.28;;;17.60;57.70;;;;;;5033200;28;20084;-67
2022/03/26 10:17:15;;;;;;;11.48;6.70;;;17.50;57.60;;;;;;5030558;28;20053;-66
2022/03/26 10:19:46;;;;;;;11.40;6.43;;;17.40;55.70;;;;;;5013119;28;20133;-66
2022/03/26 10:22:25;;;;;;;13.90;6.05;;;17.60;49.40;;;;;;5014036;28;20056;-66
2022/03/26 10:24:52;;;;;;;9.48;5.90;;;16.60;56.50;;;;;;5013205;28;20116;-65
2022/03/26 10:27:19;;;;;;;10.32;6.07;;;18.20;57.40;;;;;;5013183;28;20058;-66
2022/03/26 10:29:52;;;;;;;13.13;5.88;;;17.70;49.40;;;;;;5014841;28;20057;-67
2022/03/26 10:32:41;;;;;;;15.57;6.07;;;17.70;56.80;;;;;;5033721;28;20407;-66
2022/03/26 10:35:28;;;;;;;7.60;5.55;;;17.80;55.60;;;;;;5018224;28;20412;-66
2022/03/26 10:37:58;;;;;;;7.80;5.53;;;17.60;49.20;;;;;;5032448;28;20132;-66
2022/03/26 10:40:27;;;;;;;8.98;5.15;;;17.80;57.00;;;;;;5031928;28;20053;-66
2022/03/26 10:42:55;;;;;;;10.43;5.35;;;18.00;57.10;;;;;;5031943;28;20063;-66
2022/03/26 10:45:22;;;;;;;7.43;4.90;;;;;;;;;;5032614;28;20049;-67
2022/03/26 10:47:50;;;;;;;8.52;5.10;;;17.70;56.70;;;;;;5033726;28;20057;-66
2022/03/26 10:50:17;;;;;;;10.07;5.10;;;18.20;57.20;;;;;;5032411;28;20056;-66
2022/03/26 10:52:45;;;;;;;7.55;5.13;;;17.80;49.40;;;;;;5033486;28;20049;-67
2022/03/26 10:55:13;;;;;;;6.50;4.72;;;17.80;49.40;;;;;;5033410;28;20046;-67
2022/03/26 10:57:41;;;;;;;7.38;5.00;;;;;;;;;;5023291;28;20065;-67
2022/03/26 11:00:10;;;;;;;7.53;4.75;;;18.20;57.10;;;;;;5022490;28;20052;-66
2022/03/26 11:02:37;;;;;;;6.63;4.57;;;;;;;;;;5023843;28;20112;-67
2022/03/26 11:05:04;;;;;;;7.10;4.65;;;17.90;57.00;;;;;;5032666;28;20053;-67
2022/03/26 11:07:31;;;;;;;6.55;4.20;;;17.80;52.70;;;;;;5032074;28;20532;-66
2022/03/26 11:09:59;;;;;;;7.25;3.92;;;18.20;56.80;;;;;;5032729;28;20057;-66
2022/03/26 11:12:27;;;;;;;6.40;4.40;;;18.10;56.60;;;;;;5030269;28;20079;-66
2022/03/26 11:14:53;;;;;;;7.07;4.03;;;18.40;56.80;;;;;;5024436;28;20053;-66
2022/03/26 11:17:28;;;;;;;7.88;4.00;;;18.00;56.50;;;;;;5031681;28;20057;-66
2022/03/26 11:20:01;;;;;;;;;;;17.90;49.70;;;;;;5033246;28;20045;-68
2022/03/26 11:22:34;;;;;;;4.90;4.00;;;17.90;56.60;;;;;;5018910;28;19921;-69
2022/03/26 11:25:43;;;;;;;5.85;4.15;;;18.10;57.00;;;;;;5012030;28;20053;-68
2022/03/26 11:28:23;;;;;;;4.68;3.58;;;18.10;56.60;;;;;;4937370;29;20511;-69
2022/03/26 11:30:51;;;;;;;5.55;3.95;;;18.10;56.90;;;;;;4920972;29;20066;-68
2022/03/26 11:33:19;;;;;;;4.97;3.45;;;18.00;49.30;;;;;;4984487;28;20057;-68
2022/03/26 11:35:55;;;;;;;6.18;3.58;;;18.10;56.90;;;;;;5025782;28;20067;-68
2022/03/26 11:38:23;;;;;;;4.38;3.42;;;;;;;;;;5019506;28;20103;-68
2022/03/26 11:40:53;;;;;;;4.72;3.70;;;18.10;55.50;;;;;;5021728;28;20062;-68
2022/03/26 11:43:35;;;;;;;6.03;3.65;;;18.00;49.20;;;;;;5013017;28;20054;-67
2022/03/26 11:51:33;;;;;;;7.15;3.80;;;17.80;56.00;;;;;;5030976;28;20051;-66
2022/03/26 11:54:04;;;;;;;6.18;3.55;;;18.10;49.10;;;;;;5026304;28;20473;-68
2022/03/26 11:56:33;;;;;;;5.38;3.95;;;17.80;56.10;;;;;;5017641;28;20053;-66
2022/03/26 11:59:25;;;;;;;5.30;3.60;;;18.80;56.80;;;;;;5031311;28;20053;-66
2022/03/26 12:01:52;;;;;;;5.07;3.65;;;18.10;56.40;;;;;;5030463;28;20085;-67
2022/03/26 12:04:19;;;;;;;6.90;3.70;;;18.30;55.80;;;;;;5032458;28;20485;-66
2022/03/26 12:06:47;;;;;;;5.25;3.40;;;18.00;49.00;;;;;;5030730;28;20060;-65
2022/03/26 12:09:29;;;;;;;5.75;3.20;;;18.00;49.10;;;;;;5012009;28;20064;-68
2022/03/26 12:12:16;;;;;;;5.78;3.40;;;18.00;56.10;;;;;;5010840;28;20357;-67
2022/03/26 12:15:21;;;;;;;5.43;3.10;;;18.00;56.10;;;;;;5012123;28;20046;-68
2022/03/26 12:17:49;;;;;;;4.25;3.20;;;;;;;;;;5010971;28;20060;-67
2022/03/26 12:20:19;;;;;;;5.95;3.40;;;17.70;56.30;;;;;;5017615;28;20088;-69
2022/03/26 12:22:47;;;;;;;5.53;3.55;;;;;;;;;;5012285;28;20052;-70
2022/03/26 12:25:16;;;;;;;3.90;3.00;;;17.00;55.50;;;;;;5029931;28;20049;-67
2022/03/26 12:27:44;;;;;;;3.95;3.13;;;18.10;52.00;;;;;;5030529;28;20133;-67
2022/03/26 12:30:13;;;;;;;4.50;3.10;;;18.20;53.90;;;;;;5022329;28;20132;-67
2022/03/26 12:32:40;;;;;;;3.72;2.80;;;18.00;56.40;;;;;;5043178;28;20533;-67
2022/03/26 12:35:09;;;;;;;3.72;2.90;;;17.90;49.10;;;;;;5047178;28;20088;-68
2022/03/26 12:37:35;;;;;;;4.70;2.70;;;18.00;56.20;;;;;;5030529;28;20152;-67
2022/03/26 12:40:03;;;;;;;4.45;2.80;;;17.80;56.30;;;;;;5031307;28;20053;-67
2022/03/26 12:42:30;;;;;;;3.75;2.75;;;18.00;56.30;;;;;;5031993;28;20051;-66
2022/03/26 12:44:58;;;;;;;3.75;2.60;;;17.90;56.50;;;;;;5030166;28;20495;-66
2022/03/26 12:47:25;;;;;;;5.57;3.20;;;18.00;56.10;;;;;;5031990;28;20144;-69
2022/03/26 12:49:54;;;;;;;4.30;3.17;;;18.10;56.30;;;;;;5029849;28;20058;-69
2022/03/26 12:52:22;;;;;;;3.65;2.70;;;17.70;56.60;;;;;;5031538;28;20050;-69
2022/03/26 12:54:53;;;;;;;3.55;2.67;;;17.90;49.70;;;;;;5034386;28;20053;-68
2022/03/26 12:57:20;;;;;;;4.57;3.05;;;18.00;55.60;;;;;;5034873;28;20041;-69
2022/03/26 12:59:51;;;;;;;5.57;2.78;;;18.20;57.00;;;;;;5019298;28;20104;-69
2022/03/26 13:02:20;;;;;;;3.60;2.50;;;17.90;49.60;;;;;;5014650;28;20449;-68